Terminal Aerodrome Forecast
Issued by NWS Portland, OR

Home | Current Version | Previous Version | Text Only | Print | Product List | Glossary On
Versions: 1 2 3 4 5 6 7 8 9 10 11 12 13 14 15 16 17 18 19 20 21 22 23 24 25 26 27 28 29 30 31 32 33 34 35 36 37 38
000
FTUS46 KPQR 290520
TAFSLE
TAF
KSLE 290520Z 2906/3006 20010KT P6SM -RA OVC060
     FM290900 18008KT P6SM -RA BKN035 OVC050
     FM291200 18012KT P6SM -RA BKN022 OVC035
     FM291500 18015G23KT 5SM -RA BR BKN015 OVC030
     FM292100 19011KT P6SM -SHRA BKN022 OVC035
     FM300400 23010KT P6SM -SHRA SCT022 OVC035=

USA.gov is the U.S. government's official web portal to all federal, state and local government web resources and services.